• Join FlightAware (Why Join?)
  • Login
  • US Flag 
12:57AM EDT


 

Airport Tracker/Info


-or-


 

Live Flight TrackerFlight Track Log ✈ N779NC ✈ 01-Jul-2013 ✈ KATL - KCAE

Flight Track Log - Related Links

Times and Time Zones

All times are in EDT time to prevent confusion due to time zone crossing. See the N779NC flight status page for this flight to view local times or setup timezone preferences in your user account.

Time Position Orientation Groundspeed Altitude Reporting Facility
EDT Latitude Longitude Course Direction KTS MPH feet Rate Location/Type
06:22PM 33.6264 -84.4953 90° East 409 471 2,700  Level Atlanta Center
06:23PM 33.5906 -84.5775 242° Southwest 283 326 5,200 2,400 Climbing Atlanta Center
06:24PM 33.5197 -84.5844 185° South 236 272 7,500 2,400 Climbing Atlanta Center
06:25PM 33.6183 -83.9087 92° East  Level FlightAware Approximate
06:25PM 33.4678 -84.5294 139° Southeast 291 335 10,000  Level Atlanta Center
06:26PM 33.6345 -83.7803 90° East  Level Estimated
06:26PM 33.4575 -84.4247 97° East 327 376 11,100  Level Atlanta Center
06:27PM 33.6505 -83.6518 85° East  Level Estimated
06:27PM 33.4642 -84.3003 86° East 349 402 12,200  Level Atlanta Center
06:28PM 33.6505 -83.5219 90° East  Level FlightAware Approximate
06:28PM 33.4853 -84.1683 79° East 385 443 13,900  Level Atlanta Center
06:29PM 33.5083 -84.0314 79° East 411 473 15,300 1,860 Climbing Atlanta Center
06:30PM 33.5333 -83.8992 77° East 422 486 17,700 1,860 Climbing Atlanta Center
06:31PM 33.5603 -83.7597 77° East 417 480 19,100 1,260 Climbing Atlanta Center
06:32PM 33.5869 -83.6150 77° East 434 499 20,300 1,140 Climbing Atlanta Center
06:33PM 33.6072 -83.4825 80° East 440 506 21,400 1,140 Climbing Atlanta Center
06:34PM 33.6253 -83.3278 82° East 457 526 22,600 780 Climbing Atlanta Center
06:35PM 33.6450 -83.1728 81° East 469 540 23,000 180 Climbing Atlanta Center
06:36PM 33.6667 -83.0081 81° East 482 555 23,000  Level Atlanta Center
06:37PM 33.6903 -82.8478 80° East 482 555 23,000  Level Atlanta Center
06:38PM 33.7181 -82.6903 78° East 482 555 23,000  Level Atlanta Center
06:39PM 33.7411 -82.5325 80° East 482 555 23,000 -1,380 Level Atlanta Center
06:41PM 33.7617 -82.2506 85° East 480 552 19,300 -2,520 Descending Jacksonville Center
06:42PM 33.7631 -82.1006 89° East 463 533 16,100 -3,120 Descending Jacksonville Center
06:43PM 33.7808 -81.9681 81° East 429 494 13,100 -2,520 Descending Jacksonville Center
06:44PM 33.8006 -81.8178 81° East 407 468 11,100 -1,380 Descending Jacksonville Center
06:45PM 33.8078 -81.7028 86° East 390 449 10,400 -840 Descending Jacksonville Center
06:46PM 33.8111 -81.5978 88° East 350 403 9,500 -1,620 Descending Jacksonville Center
06:47PM 33.8792 -81.5342 38° Northeast 281 323 7,200 -2,340 Descending Jacksonville Center
06:48PM 33.9517 -81.4931 25° Northeast 273 314 4,900 -2,100 Descending Jacksonville Center
06:49PM 34.0094 -81.4394 38° Northeast 273 314 3,000 -1,380 Descending Jacksonville Center
06:50PM 33.9964 -81.3722 103° East 196 226 2,200 -360 Descending Jacksonville Center
06:51PM 33.9808 -81.3147 108° East 178 205 2,300 60 Climbing Jacksonville Center